Downloads

-JavaCPC -demo -emu -j-cpc_ani -tools 0-9 A B C D E F G H I J K L M N O P Q R S T U V W X Y Z ZZZ_UNK roms
FILEDATESIZEDLs
KTris by Richard Wilson (PD).zip 2017-04-21 16:14 2 Kb233
Kaiser (G) (19xx).zip 2017-04-21 16:13 91 Kb253
Kane & Nebulus & Renaud - Marche a l'Ombre.zip 2017-04-21 16:13 95 Kb140
Kane (UK) (1986).zip 2017-04-21 16:13 28 Kb223
Kane (UK) (1986) [a1].zip 2017-04-21 16:13 80 Kb234
Kane (UK) (1986) [a2].zip 2017-04-21 16:13 38 Kb218
Kane (UK) (1986) [t1].zip 2017-04-21 16:13 38 Kb236
Karateka (F) (1986).zip 2017-04-21 16:13 50 Kb231
Karateka (F) (1986) [f1].zip 2017-04-21 16:13 50 Kb232
Karateka (F) (1986) [t1].zip 2017-04-21 16:13 50 Kb226
Karateka (F) (1990).zip 2017-04-21 16:13 49 Kb228
Karateka (F) (1990) [t1].zip 2017-04-21 16:13 49 Kb220
Karateka (F).dsk 2017-04-21 16:13 192 Kb232
Karl's Treasure Hunt (UK) (1984).zip 2017-04-21 16:13 11 Kb225
Karl's Treasure Hunt (UK) (1984) [a1].zip 2017-04-21 16:13 84 Kb224
Karl's Treasure Hunt (UK) (1984) [a2].zip 2017-04-21 16:13 11 Kb219
Karnov (E) - Disk 1A.dsk 2017-04-21 16:13 214 Kb220
Karnov (E) - Disk 1B.dsk 2017-04-21 16:13 214 Kb217
Karnov (UK) (1988) (Disk 1 of 2).zip 2017-04-21 16:13 73 Kb213
Karnov (UK) (1988) (Disk 1 of 2) [a1].zip 2017-04-21 16:13 56 Kb209
Karnov (UK) (1988) (Disk 1 of 2) [t1].zip 2017-04-21 16:13 159 Kb223
Karnov (UK) (1988) (Disk 1 of 2) [t2].zip 2017-04-21 16:13 73 Kb208
Karnov (UK) (1988) (Disk 2 of 2).zip 2017-04-21 16:13 62 Kb217
Karnov (UK) (1988) (Disk 2 of 2) [a1].zip 2017-04-21 16:13 105 Kb216
Karnov (UK) (1988) (Disk 2 of 2) [t2].zip 2017-04-21 16:13 62 Kb248
Kat Trap (E).dsk 2017-04-21 16:13 91 Kb214
Kat Trap (UK) (1987).zip 2017-04-21 16:13 34 Kb220
Keep Yourself Alive (F) (1987).zip 2017-04-21 16:13 19 Kb224
Kenny Dalglish Soccer Manager (E).cdt 2017-04-21 16:13 57 Kb232
Kenny Dalglish Soccer Manager (UK) (1989).zip 2017-04-21 16:13 25 Kb217
Kenny Dalglish Soccer Match (UK) (1990).zip 2017-04-21 16:13 29 Kb217
Kentilla (UK) (1985).zip 2017-04-21 16:13 23 Kb222
Kentilla (UK) (1985) [a1].zip 2017-04-21 16:13 30 Kb222
Kentucky Racing (E).cdt 2017-04-21 16:13 45 Kb228
Kentucky Racing (UK) (1990).zip 2017-04-21 16:13 24 Kb215
Kentucky Racing (UK) (1990) [f1].zip 2017-04-21 16:13 24 Kb223
Kessia (F) (19xx).zip 2017-04-21 16:13 72 Kb215
Kettle (E).dsk 2017-04-21 16:13 193 Kb214
Kettle (UK) (1986).zip 2017-04-21 16:13 21 Kb224
Kevin Thacker's CPC Guide (UK) (19xx) (PD) (Disk 1 of 2).zip 2017-04-21 16:13 47 Kb211
Kevin Thacker's CPC Guide (UK) (19xx) (PD) (Disk 2 of 2).zip 2017-04-21 16:13 41 Kb216
Key Factor, The (UK) (1985).zip 2017-04-21 16:13 13 Kb219
Kick Off (UK,F,G,S,I) (1990).zip 2017-04-21 16:13 27 Kb219
Kick Off (UK,F,G,S,I) (1990) [a1].zip 2017-04-21 16:13 131 Kb214
Kick Off (UK,F,G,S,I) (1990) [a2].zip 2017-04-21 16:13 31 Kb210
Kick Off 2 (E) - Disk 1A.dsk 2017-04-21 16:13 178 Kb230
Kick Off 2 (E) - Disk 1B.dsk 2017-04-21 16:13 178 Kb221
Kick Off 2 (F) (1990).zip 2017-04-21 16:13 68 Kb218
Kick Off 2 (F) (1990) [a1].zip 2017-04-21 16:13 68 Kb219
Kikstart II (UK) (1988).zip 2017-04-21 16:13 24 Kb221
Kikstart II (UK) (1988) [a1].zip 2017-04-21 16:13 23 Kb226
Killapede (UK) (1986).zip 2017-04-21 16:13 26 Kb216
Killapede (UK) (1986) [a1].zip 2017-04-21 16:13 26 Kb213
Killapede (UK) (1986) [a2].zip 2017-04-21 16:13 32 Kb225
Killapede (UK) (1986) [a3].zip 2017-04-21 16:13 30 Kb248
Killed Until Dead (UK) (1987) (Disk 1 of 2).zip 2017-04-21 16:13 50 Kb207
Killed Until Dead (UK) (1987) (Disk 2 of 2).zip 2017-04-21 16:13 62 Kb212
Killer Ball (UK) (1991).zip 2017-04-21 16:14 103 Kb216
Killer Ball (UK) (1991) [a1].zip 2017-04-21 16:13 103 Kb215
Killer Ball (UK) (1991) [a2].zip 2017-04-21 16:13 76 Kb214
Killer Ball (UK) (1991) [a3].zip 2017-04-21 16:13 96 Kb211
Killer Cobra (E).cdt 2017-04-21 16:14 49 Kb216
Killer Cobra (UK) (1987).zip 2017-04-21 16:14 27 Kb218
Killer Cobra (UK) (1987) [a1].zip 2017-04-21 16:14 27 Kb216
Killer Cobra (UK) (1987) [a2].zip 2017-04-21 16:14 31 Kb211
Killer Gorilla & Knight Lore & Laserwarp & Molecule Man & Zaxx (F).zip 2017-04-21 16:14 82 Kb137
Killer Gorilla (UK) (1984).zip 2017-04-21 16:14 19 Kb218
Killer Gorilla (UK) (1984) [a1].zip 2017-04-21 16:14 19 Kb224
Killer Gorilla (UK) (1984) [a2].zip 2017-04-21 16:14 15 Kb228
Killer Gorilla (UK) (1984) [a3].zip 2017-04-21 16:14 18 Kb218
Killer Gorilla (UK) (1984) [b1].zip 2017-04-21 16:14 19 Kb218
Killer Gorilla (UK) (1984) [b2].zip 2017-04-21 16:14 19 Kb219
Killer Ring (UK) (1987).zip 2017-04-21 16:14 16 Kb221
Killer Ring (UK) (1987) [a1].zip 2017-04-21 16:14 16 Kb223
Kiloroid (UK) (19xx).zip 2017-04-21 16:14 2 Kb215
Kim (F) (1986).zip 2017-04-21 16:14 9 Kb216
Kinetic (UK) (1987).zip 2017-04-21 16:14 35 Kb215
Kinetic (UK) (1987) [a1].zip 2017-04-21 16:14 36 Kb221
Kinetic (UK) (1987) [a2].zip 2017-04-21 16:14 35 Kb224
Kinetik (E).dsk 2017-04-21 16:14 195 Kb231
Kingdom of Hamil (UK) (1987).zip 2017-04-21 16:14 57 Kb216
Kingdoms (UK) (1985).zip 2017-04-21 16:14 5 Kb215
Kit de Telechargement - Telecharge Amstrad CPC (F).dsk 2017-04-21 16:14 217 Kb224
Kit de Telechargement pour Amstrad CPC (F).dsk 2017-04-21 16:14 191 Kb239
Klax & Meynaumede (F) & Nervous Break Down (F) & Skweek.zip 2017-04-21 16:14 97 Kb138
Klax (E).dsk 2017-04-21 16:14 172 Kb220
Klax (UK) (1990) (CPM).zip 2017-04-21 16:14 44 Kb212
Klax (UK) (1990) (CPM) [a1].zip 2017-04-21 16:14 44 Kb227
Klax (UK) (1990) (CPM Version).zip 2017-04-21 16:14 43 Kb210
Klax (UK) (1990) (CPM Version) [a1].zip 2017-04-21 16:14 43 Kb219
Klax (UK) (1990) (Cart).zip 2017-04-21 16:14 41 Kb223
Klax (UK) (1990).zip 2017-04-21 16:14 42 Kb212
Klax (UK) (1990) [a1].zip 2017-04-21 16:14 42 Kb225
Klax (UK) (1990) [h1].zip 2017-04-21 16:14 52 Kb215
Klax (UK) (1990) [h2].zip 2017-04-21 16:14 54 Kb219
Knaves and thou Prisoners (UK) (19xx).zip 2017-04-21 16:14 8 Kb210
Knight Force (F) (1989) (Disk 1 of 2).zip 2017-04-21 16:14 54 Kb214
Knight Force (F) (1989) (Disk 1 of 2) [t1].zip 2017-04-21 16:14 55 Kb210
Knight Force (F) (1989) (Disk 1 of 2) [t2] & Power Drift.zip 2017-04-21 16:14 108 Kb128
Knight Force (F) (1989) (Disk 1 of 2) [t2].zip 2017-04-21 16:14 75 Kb207
Knight Force (F) (1989) (Disk 2 of 2).zip 2017-04-21 16:14 76 Kb217
Knight Force (F) - Disk 1A.dsk 2017-04-21 16:14 456 Kb219
Knight Force (F) - Disk 1B.dsk 2017-04-21 16:14 627 Kb218
Knight Games (E) - Side A.cdt 2017-04-21 16:14 166 Kb227
Knight Games (E) - Side B.cdt 2017-04-21 16:14 142 Kb216
Knight Games (UK) (1986) (Disk 1 of 2).zip 2017-04-21 16:14 88 Kb220
Knight Games (UK) (1986) (Disk 1 of 2) [a1].zip 2017-04-21 16:14 83 Kb211
Knight Games (UK) (1986) (Disk 1 of 2) [a2].zip 2017-04-21 16:14 83 Kb210
Knight Games (UK) (1986) (Disk 1 of 2) [a3].zip 2017-04-21 16:14 103 Kb204
Knight Games (UK) (1986) (Disk 2 of 2).zip 2017-04-21 16:14 94 Kb220
Knight Games (UK) (1986) (Disk 2 of 2) [a1].zip 2017-04-21 16:14 76 Kb211
Knight Games (UK) (1986) (Disk 2 of 2) [a2].zip 2017-04-21 16:14 79 Kb209
Knight Games (UK) (1986) (Disk 2 of 2) [a3].zip 2017-04-21 16:14 109 Kb210
Knight Games (UK) (1986) [f1][t1].zip 2017-04-21 16:14 179 Kb215
Knight Lore (E).cdt 2017-04-21 16:14 42 Kb218
Knight Lore (UK) (1984).zip 2017-04-21 16:14 25 Kb224
Knight Lore (UK) (1984) [a1].zip 2017-04-21 16:14 25 Kb213
Knight Lore (UK) (1984) [a2].zip 2017-04-21 16:14 25 Kb223
Knight Moves (F) (19xx) (Disk 1 of 2).zip 2017-04-21 16:14 60 Kb215
Knight Moves (F) (19xx) (Disk 2 of 2).zip 2017-04-21 16:14 83 Kb217
Knight Orc (E) - Disk 1A.dsk 2017-04-21 16:14 194 Kb218
Knight Orc (E) - Disk 1B.dsk 2017-04-21 16:14 199 Kb219
Knight Orc (UK) (1987) (Disk 1 of 2).zip 2017-04-21 16:14 119 Kb228
Knight Orc (UK) (1987) (Disk 2 of 2).zip 2017-04-21 16:14 110 Kb221
Knight Rider (E).cdt 2017-04-21 16:14 45 Kb224
Knight Rider (UK) (1986).zip 2017-04-21 16:14 20 Kb217
Knight Rider (UK) (1986) [h1].zip 2017-04-21 16:14 32 Kb215
Knight Rider (UK) (1986) [h2].zip 2017-04-21 16:14 21 Kb222
Knight Tyme (E).cdt 2017-04-21 16:14 57 Kb225
Knight Tyme (UK) (1986).zip 2017-04-21 16:14 31 Kb224
Knight Tyme (UK) (1986) [a1].zip 2017-04-21 16:14 31 Kb221
Knight Tyme (UK) (1986) [t1].zip 2017-04-21 16:14 31 Kb213
Knightmare (E).dsk 2017-04-21 16:14 213 Kb232
Knightmare (UK) (1987).zip 2017-04-21 16:14 29 Kb216
Knightmare (UK) (1987) [a1].zip 2017-04-21 16:14 30 Kb215
Knightmare (UK) (1987) [a2].zip 2017-04-21 16:14 30 Kb224
Knightmare (UK) (1987) [t1].zip 2017-04-21 16:14 33 Kb218
Know (G).dsk 2017-04-21 16:14 192 Kb235
Kobayashi Naru (UK) (19xx).zip 2017-04-21 16:14 31 Kb228
Kobayashi Naru (UK) (1987).zip 2017-04-21 16:14 31 Kb233
Kobayashi Naru (UK) (1987) [a1].zip 2017-04-21 16:14 31 Kb218
Kobayashi Naru (UK) (1987) [a2].zip 2017-04-21 16:14 48 Kb239
Kokotoni Wilf (UK) (19xx).zip 2017-04-21 16:14 137 Kb227
Kokotoni Wilf (UK) (19xx) [a1].zip 2017-04-21 16:14 35 Kb226
Kokotoni Wilf (UK) (19xx) [f1][t1].zip 2017-04-21 16:14 37 Kb218
Konami's Golf (UK) (1986).zip 2017-04-21 16:14 24 Kb215
Konami's Golf (UK) (1986) [a1].zip 2017-04-21 16:14 24 Kb218
Konami's Golf (UK) (1986) [a2].zip 2017-04-21 16:14 26 Kb221
Konami Coin-op Hits (UK) (19xx) (Disk 1 of 2).zip 2017-04-21 16:14 50 Kb221
Konami Coin-op Hits (UK) (19xx) (Disk 1 of 2) [a1].zip 2017-04-21 16:14 50 Kb208
Konami Coin-op Hits (UK) (19xx) (Disk 2 of 2).zip 2017-04-21 16:14 65 Kb212
Konami Coin-op Hits (UK) (19xx) (Disk 2 of 2) [a1].zip 2017-04-21 16:14 65 Kb231
Konami Coin-op Hits (UK) (19xx) (Disk 2 of 2) [a2].zip 2017-04-21 16:14 65 Kb211
Kong Strikes Back (UK) (1985).zip 2017-04-21 16:14 21 Kb234
Kong Strikes Back (UK) (1985) [a1].zip 2017-04-21 16:14 21 Kb231
Kong Strikes Back (UK) (1985) [a2].zip 2017-04-21 16:14 23 Kb220
Koronis Rift (E).dsk 2017-04-21 16:14 186 Kb224
Koronis Rift (UK) (1987).zip 2017-04-21 16:14 57 Kb224
Krakout (E).cdt 2017-04-21 16:14 64 Kb233
Krakout (E).dsk 2017-04-21 16:14 171 Kb225
Krakout (UK) (1987).zip 2017-04-21 16:14 31 Kb224
Krakout (UK) (1987) [h1].zip 2017-04-21 16:14 34 Kb224
Kristal (F).dsk 2017-04-21 16:14 191 Kb226
Kristal (UK) (1985).zip 2017-04-21 16:14 16 Kb229
Kristax (UK) (1989).zip 2017-04-21 16:14 9 Kb228
Krypton Factor (UK) (1987) (Disk 1 of 2).zip 2017-04-21 16:14 52 Kb213
Krypton Factor (UK) (1987) (Disk 1 of 2) [a1].zip 2017-04-21 16:14 47 Kb221
Krypton Factor (UK) (1987) (Disk 2 of 2).zip 2017-04-21 16:14 5 Kb219
Krypton Factor (UK) (1987) (Disk 2 of 2) [a1].zip 2017-04-21 16:14 21 Kb217
Kung-Fu (UK) (1986).zip 2017-04-21 16:14 19 Kb220
Kung-Fu Master (E).dsk 2017-04-21 16:14 191 Kb215
Kung-Fu Master (UK) (1986).zip 2017-04-21 16:14 28 Kb231
Kung-Fu Master (UK) (1986) [h1].zip 2017-04-21 16:14 22 Kb222
Kwah (UK) (1987).zip 2017-04-21 16:14 36 Kb208
Kwik Snax (E).cdt 2017-04-21 16:14 65 Kb235
Kwik Snax (UK) (1990).zip 2017-04-21 16:14 22 Kb216
Kwik Snax (UK) (1990) [f1].zip 2017-04-21 16:14 33 Kb229
Kwik Snax (UK) (1990) [h1].zip 2017-04-21 16:14 41 Kb222
Kwik Snax (UK) (1990) [t1].zip 2017-04-21 16:14 33 Kb224
kobayashi Naru (E).cdt 2017-04-21 16:14 74 Kb224
180 Files
-JavaCPC -demo -emu -j-cpc_ani -tools 0-9 A B C D E F G H I J K L M N O P Q R S T U V W X Y Z ZZZ_UNK roms